TimeCDT,TemperatureF,Dew PointF,Humidity,Sea Level PressureIn,VisibilityMPH,Wind Direction,Wind SpeedMPH,Gust SpeedMPH,PrecipitationIn,Events,Conditions,WindDirDegrees,DateUTC
12:15 AM,65.3,60.1,83,29.97,10.0,NNW,4.6,-,N/A,,Clear,330,2013-08-13 05:15:00
12:35 AM,64.9,60.3,85,29.97,10.0,NNW,5.8,-,N/A,,Clear,330,2013-08-13 05:35:00
12:55 AM,63.3,59.2,86,29.97,10.0,NW,6.9,-,N/A,,Clear,320,2013-08-13 05:55:00
1:15 AM,63.5,59.0,85,29.97,10.0,NNW,6.9,-,N/A,,Clear,330,2013-08-13 06:15:00
1:35 AM,63.5,59.0,85,29.96,10.0,NNW,5.8,-,N/A,,Clear,340,2013-08-13 06:35:00
1:55 AM,63.1,58.5,85,29.97,10.0,NNW,5.8,-,N/A,,Clear,330,2013-08-13 06:55:00
2:15 AM,62.6,57.9,85,29.96,10.0,North,5.8,-,N/A,,Clear,350,2013-08-13 07:15:00
2:35 AM,62.6,57.7,84,29.97,10.0,North,6.9,-,N/A,,Clear,350,2013-08-13 07:35:00
2:55 AM,61.2,56.7,85,29.97,10.0,NNW,6.9,-,N/A,,Clear,330,2013-08-13 07:55:00
3:15 AM,61.2,57.2,87,29.98,10.0,NNW,6.9,-,N/A,,Clear,340,2013-08-13 08:15:00
3:35 AM,61.0,56.7,86,29.98,10.0,North,5.8,-,N/A,,Clear,360,2013-08-13 08:35:00
3:55 AM,60.4,56.5,87,29.98,10.0,North,8.1,-,N/A,,Clear,10,2013-08-13 08:55:00
4:15 AM,60.8,57.2,88,29.98,10.0,NNE,9.2,-,N/A,,Clear,20,2013-08-13 09:15:00
4:35 AM,60.4,57.4,90,29.99,10.0,NNE,8.1,-,N/A,,Clear,30,2013-08-13 09:35:00
4:55 AM,62.4,59.4,90,29.99,10.0,NE,10.4,-,N/A,,Clear,40,2013-08-13 09:55:00
5:15 AM,61.7,58.6,90,30.00,10.0,NNE,10.4,-,N/A,,Clear,30,2013-08-13 10:15:00
5:35 AM,61.7,58.5,89,30.01,10.0,NNE,8.1,-,N/A,,Clear,30,2013-08-13 10:35:00
5:55 AM,61.0,57.2,87,30.03,10.0,NNE,10.4,-,N/A,,Clear,30,2013-08-13 10:55:00
6:15 AM,60.3,57.2,90,30.03,10.0,NNE,9.2,-,N/A,,Clear,20,2013-08-13 11:15:00
6:35 AM,59.9,56.7,89,30.03,10.0,NNE,11.5,-,N/A,,Clear,30,2013-08-13 11:35:00
6:55 AM,60.3,55.8,85,30.03,10.0,NNE,11.5,18.4,N/A,,Clear,30,2013-08-13 11:55:00
7:15 AM,59.9,55.6,86,30.05,10.0,NNE,10.4,16.1,N/A,,Clear,20,2013-08-13 12:15:00
7:35 AM,60.3,55.2,83,30.05,10.0,NNE,11.5,-,N/A,,Clear,30,2013-08-13 12:35:00
7:55 AM,60.6,54.3,80,30.06,10.0,NE,10.4,16.1,N/A,,Clear,40,2013-08-13 12:55:00
8:15 AM,61.2,54.1,78,30.07,10.0,NE,11.5,-,N/A,,Clear,40,2013-08-13 13:15:00
8:35 AM,61.7,54.3,77,30.08,10.0,NE,11.5,-,N/A,,Clear,50,2013-08-13 13:35:00
8:55 AM,62.6,54.3,74,30.09,10.0,NNE,11.5,-,N/A,,Clear,30,2013-08-13 13:55:00
9:15 AM,63.0,54.0,72,30.09,10.0,NNE,11.5,-,N/A,,Clear,30,2013-08-13 14:15:00
9:35 AM,63.5,53.8,71,30.09,10.0,NE,10.4,-,N/A,,Clear,40,2013-08-13 14:35:00
9:55 AM,64.0,53.4,68,30.11,10.0,NNE,9.2,-,N/A,,Clear,30,2013-08-13 14:55:00
10:15 AM,65.8,53.8,65,30.11,10.0,NNE,11.5,-,N/A,,Clear,30,2013-08-13 15:15:00
10:35 AM,66.2,53.8,64,30.11,10.0,NE,9.2,-,N/A,,Clear,50,2013-08-13 15:35:00
10:55 AM,66.9,51.8,58,30.11,10.0,NE,9.2,-,N/A,,Scattered Clouds,50,2013-08-13 15:55:00
11:15 AM,67.3,49.5,53,30.12,10.0,NE,11.5,16.1,N/A,,Clear,50,2013-08-13 16:15:00
11:35 AM,68.2,48.9,50,30.12,10.0,NE,13.8,-,N/A,,Clear,50,2013-08-13 16:35:00
11:55 AM,69.1,46.6,45,30.12,10.0,NE,10.4,16.1,N/A,,Clear,40,2013-08-13 16:55:00
12:15 PM,68.7,46.9,46,30.13,10.0,NE,11.5,-,N/A,,Clear,50,2013-08-13 17:15:00
12:35 PM,70.0,47.1,44,30.13,10.0,North,10.4,-,N/A,,Clear,360,2013-08-13 17:35:00
12:55 PM,70.0,45.7,42,30.13,10.0,NNE,11.5,20.7,N/A,,Clear,30,2013-08-13 17:55:00
1:15 PM,69.8,45.5,42,30.13,10.0,North,10.4,-,N/A,,Clear,10,2013-08-13 18:15:00
1:35 PM,70.7,44.6,39,30.13,10.0,North,12.7,-,N/A,,Clear,10,2013-08-13 18:35:00
1:55 PM,70.9,45.3,40,30.13,10.0,North,9.2,17.3,N/A,,Clear,10,2013-08-13 18:55:00
2:15 PM,71.6,45.9,40,30.12,10.0,NNE,11.5,16.1,N/A,,Clear,20,2013-08-13 19:15:00
2:35 PM,71.6,44.2,37,30.12,10.0,North,9.2,-,N/A,,Clear,360,2013-08-13 19:35:00
2:55 PM,71.8,46.0,40,30.12,10.0,NNE,10.4,-,N/A,,Scattered Clouds,20,2013-08-13 19:55:00
3:15 PM,71.2,45.5,40,30.12,10.0,NNE,10.4,-,N/A,,Mostly Cloudy,20,2013-08-13 20:15:00
3:35 PM,72.1,44.8,37,30.12,10.0,NNW,9.2,-,N/A,,Scattered Clouds,340,2013-08-13 20:35:00
3:55 PM,71.4,45.5,39,30.12,10.0,NNE,11.5,16.1,N/A,,Scattered Clouds,30,2013-08-13 20:55:00
4:15 PM,71.6,45.0,38,30.11,10.0,NNE,9.2,-,N/A,,Scattered Clouds,20,2013-08-13 21:15:00
4:35 PM,71.6,45.5,39,30.11,10.0,NNE,10.4,-,N/A,,Scattered Clouds,30,2013-08-13 21:35:00
4:55 PM,69.8,45.5,42,30.11,10.0,North,8.1,-,N/A,,Mostly Cloudy,10,2013-08-13 21:55:00
5:15 PM,70.0,45.3,41,30.11,10.0,NNE,10.4,-,N/A,,Scattered Clouds,20,2013-08-13 22:15:00
5:35 PM,69.8,46.8,44,30.11,10.0,NNE,9.2,-,N/A,,Mostly Cloudy,30,2013-08-13 22:35:00
5:55 PM,70.0,48.2,46,30.11,10.0,NE,10.4,-,N/A,,Scattered Clouds,40,2013-08-13 22:55:00
6:55 PM,68.4,49.1,50,30.11,10.0,NNE,5.8,-,N/A,,Clear,20,2013-08-13 23:55:00
7:15 PM,67.3,48.2,50,30.11,10.0,North,8.1,-,N/A,,Clear,10,2013-08-14 00:15:00
7:35 PM,65.5,49.1,55,30.11,10.0,NNE,5.8,-,N/A,,Clear,20,2013-08-14 00:35:00
7:55 PM,63.9,50.0,61,30.11,10.0,NNE,5.8,-,N/A,,Clear,30,2013-08-14 00:55:00
8:15 PM,62.6,49.5,62,30.11,10.0,North,4.6,-,N/A,,Clear,10,2013-08-14 01:15:00
8:35 PM,61.0,50.2,68,30.12,10.0,Calm,Calm,-,N/A,,Clear,0,2013-08-14 01:35:00
8:55 PM,61.5,50.0,66,30.13,10.0,Calm,Calm,-,N/A,,Clear,0,2013-08-14 01:55:00
9:15 PM,61.2,50.0,67,30.13,10.0,North,3.5,-,N/A,,Clear,360,2013-08-14 02:15:00
9:35 PM,60.6,49.8,68,30.14,10.0,North,4.6,-,N/A,,Clear,360,2013-08-14 02:35:00
9:55 PM,59.9,50.0,70,30.14,10.0,North,4.6,-,N/A,,Clear,360,2013-08-14 02:55:00
10:15 PM,59.9,50.2,70,30.14,10.0,North,5.8,-,N/A,,Clear,10,2013-08-14 03:15:00
10:35 PM,58.5,49.5,72,30.14,10.0,North,4.6,-,N/A,,Clear,350,2013-08-14 03:35:00
10:55 PM,57.9,49.8,74,30.14,10.0,North,3.5,-,N/A,,Clear,360,2013-08-14 03:55:00
11:15 PM,56.7,49.3,76,30.15,10.0,North,4.6,-,N/A,,Clear,350,2013-08-14 04:15:00
11:35 PM,57.2,49.6,76,30.15,10.0,North,4.6,-,N/A,,Clear,360,2013-08-14 04:35:00
11:55 PM,56.3,49.3,77,30.16,10.0,North,4.6,-,N/A,,Clear,350,2013-08-14 04:55:00